SBMO/MCZ METAR and TAF weather

Enter ICAO airport designator
Station Type Date Time Source
SBMO METAR 2022/06/28 15:00 UTC NOAA

SBMO 281500Z 16009KT 8000 VCSH SCT015 SCT019 BKN070 24/21 Q1017 RERA


Station Type Date Time Source
SBMO Decoded METAR 2022/06/28 15:00 UTC NOAA

Maceio Aeroporto , Brazil (SBMO) 09-31S 035-47W 115M
Jun 28, 2022 - 11:00 AM EDT / 2022.06.28 1500 UTC
Wind: from the SSE (160 degrees) at 10 MPH (9 KT):0
Visibility: 4 mile(s):0
Sky conditions: mostly cloudy
Weather: showers in the vicinity
Temperature: 75 F (24 C)
Dew Point: 69 F (21 C)
Relative Humidity: 83%
Pressure (altimeter): 30.03 in. Hg (1017 hPa)
ob: SBMO 281500Z 16009KT 8000 VCSH SCT015 SCT019 BKN070 24/21 Q1017 RERA
cycle: 15

Station Type Date Time Source
SBMO TAF 2022/06/28 12:07 UTC NOAA

TAF SBMO 280902Z 2812/2912 23007KT 7000 BKN017 TX26/2816Z TN21/2908Z
BECMG 2812/2815 17013KT
TEMPO 2815/2821 3000 RA BR BKN010
BECMG 2822/2824 27005KT PROB40 2907/2911 2000 BR BKN005
RMK PHI

Example: see airport list